Scholes International At Galveston Airport
KGLS : now visible

Airfield :











YOU CAN JOIN US ON...

 
LOGIN :

Register | Disclaimer

   EN    FR    IT 

 









Legend :    VFR   Marginal VFR   IFR   Intensive IFR   Very Intensive IFR
Visi :
Ceiling :
>= 8 km
>= 3000ft
5 to 8 km
1000 to 3000 ft
1500m to 5 km
500 to 1000 ft
800 to 1500m
200 to 500 ft
< 800m
< 200 ft
Symbols :   Thunderstorms  Fog  Heavy snow  Heavy precipitations  Wind > 20 kt






- Airport Elevation : 6 ft
- IATA code : GLS


KGLS - Scholes International At Galveston

CURRENT METAR :
  • 122252Z 34019KT 10SM CLR 08/M02 A3037 RMK AO2 PK WND 35027/2228 SLP284 T00781017

EXPIRED METARs :
  • 122152Z 36015KT 10SM CLR 08/M02 A3037 RMK AO2 SLP285 T00831022
  • 122052Z 34019KT 10SM CLR 08/M02 A3039 RMK AO2 PK WND 35026/1954 SLP289 T00831017 56015 $

TAF KGLS
Valid from the 13 at 00:00 until the 14 at 00:00 UTC


122320Z 1300/1324 35018KT P6SM BKN250
FM130800 03010KT P6SM BKN250
FM131800 06008KT P6SM OVC100



MET'MAP, your aeronautical weather chart ! - Copyright ORBIFLY December 2007 - Disclaimer

ORBIFLY MET'MAP TEAM :

Programming & Development : Alexandra Zaïnal
Concept & Development : Baudouin d'Aumeries
Co-Development & Prog : Marc-Olivier Méhu
Technical & hardware support : Manuel Goepfert

Contact : metmap@orbifly.com




SOURCES & CREDITS :

   NOAA       Earth
Advisory